MFX weather

Méribel Altiport
Rhône Alpes, France

Public forecast

Using degrees Celsius for public forecast. Weather courtesy of forecast.io.

METAR (pilot weather report)

Closest report is Chambéry-Savoie Airport, 32.5 nm (60.1 km) WNW. Retrieved 2019/09/21 09:30 UTC (22 minutes ago):

LFLB 210930Z AUTO 35006KT 320V020 CAVOK 20/11 Q1019 NOSIG

TAF (pilot weather forecast)

Closest forecast is Chambéry-Savoie Airport, 32.5 nm (60.1 km) WNW. Retrieved 2019/09/21 06:21 UTC (4 hours ago):

TAF LFLB 210500Z 2106/2206 VRB03KT CAVOK